• Join FlightAware (Why Join?)
  • Login
  • US Flag 
02:54PM EDT


 

Airport Tracker/Info


-or-


 

Live Flight TrackerFlight Track Log ✈ GJS3629 ✈ 10-May-2013 ✈ KOMA - KORD

Flight Track Log - Related Links

Times and Time Zones

All times are in EDT time to prevent confusion due to time zone crossing. See the GJS3629 flight status page for this flight to view local times or setup timezone preferences in your user account.

Time Position Orientation Groundspeed Altitude Reporting Facility
EDT Latitude Longitude Course Direction KTS MPH feet Rate Location/Type
06:38PM 41.3131 -95.9119 44° Northeast 134 154 1,600  Level Minneapolis Center
06:39PM 41.3506 -95.9025 11° North 198 228 3,300 1,800 Climbing Minneapolis Center
06:40PM 41.4003 -95.8589 33° Northeast 212 244 5,000 2,280 Climbing Minneapolis Center
06:41PM 41.4583 -95.8061 34° Northeast 232 267 8,100 2,940 Climbing Minneapolis Center
06:42PM 41.6192 -95.5103 42° Northeast  Level FlightAware Approximate
06:42PM 41.5186 -95.7383 40° Northeast 260 299 11,100  Level Minneapolis Center
06:43PM 41.6967 -95.4133 48° Northeast  Level FlightAware Approximate
06:43PM 41.5800 -95.6592 44° Northeast 286 329 12,200  Level Minneapolis Center
06:44PM 41.7718 -95.3126 44° Northeast  Level FlightAware Approximate
06:44PM 41.6703 -95.5422 44° Northeast 348 400 14,000  Level Minneapolis Center
06:45PM 41.7494 -95.4392 44° Northeast 385 443 15,800 1,980 Climbing Minneapolis Center
06:46PM 41.8294 -95.3353 44° Northeast 398 458 18,200 1,980 Climbing Minneapolis Center
06:47PM 41.8656 -95.2278 66° East 400 460 20,000 1,560 Climbing Minneapolis Center
06:48PM 41.8856 -95.0756 80° East 412 474 21,500 1,500 Climbing Minneapolis Center
06:49PM 41.9111 -94.8867 80° East 425 489 23,100 1,320 Climbing Minneapolis Center
06:50PM 41.9336 -94.7244 79° East 438 504 24,300 1,260 Climbing Minneapolis Center
06:51PM 41.9600 -94.5258 80° East 447 514 25,800 1,260 Climbing Minneapolis Center
06:53PM 41.9825 -94.3586 80° East 452 520 27,000 1,140 Climbing Minneapolis Center
06:54PM 42.0053 -94.1914 80° East 454 522 28,200 1,140 Climbing Minneapolis Center
06:55PM 42.0281 -94.0217 80° East 458 527 29,400 1,140 Climbing Minneapolis Center
06:56PM 42.0475 -93.8500 81° East 457 526 30,600 1,140 Climbing Minneapolis Center
06:57PM 42.0692 -93.6847 80° East 456 525 31,800 1,140 Climbing Minneapolis Center
06:58PM 42.0939 -93.4864 80° East 453 521 33,000 540 Climbing Minneapolis Center
06:59PM 42.1150 -93.3197 80° East 455 524 33,000  Level Minneapolis Center
07:00PM 42.1356 -93.1456 81° East 468 539 33,000  Level Minneapolis Center
07:01PM 42.1567 -92.9692 81° East 479 551 33,000  Level Minneapolis Center
07:02PM 42.1775 -92.7928 81° East 481 554 33,000  Level Minneapolis Center
07:03PM 42.2031 -92.5794 81° East 484 557 33,000  Level Minneapolis Center
07:04PM 42.2231 -92.4000 81° East 485 558 33,000  Level Minneapolis Center
07:05PM 42.2436 -92.2192 81° East 489 563 33,000  Level Minneapolis Center
07:06PM 42.2592 -92.0753 82° East 489 563 33,000  Level Chicago Center
07:07PM 42.2786 -91.8958 82° East 491 565 33,000  Level Chicago Center
07:08PM 42.2986 -91.7167 81° East 490 564 33,000  Level Chicago Center
07:09PM 42.3175 -91.5378 82° East 491 565 33,000  Level Chicago Center
07:10PM 42.3400 -91.3214 82° East 493 567 33,000  Level Chicago Center
07:11PM 42.3578 -91.1400 82° East 496 571 33,000 -600 Level Chicago Center
07:12PM 42.3772 -90.9547 82° East 504 580 31,800 -1,320 Descending Chicago Center
07:13PM 42.3950 -90.7750 82° East 493 567 30,300 -1,620 Descending Chicago Center
07:14PM 42.4158 -90.5656 82° East 475 547 28,500 -1,620 Descending Chicago Center
07:15PM 42.4339 -90.3914 82° East 473 544 27,000 -1,500 Descending Chicago Center
07:16PM 42.4511 -90.2167 82° East 473 544 25,500 -1,740 Descending Chicago Center
07:17PM 42.4667 -90.0433 83° East 470 541 23,500 -2,100 Descending Chicago Center
07:18PM 42.4881 -89.8403 82° East 470 541 21,200 -2,100 Descending Chicago Center
07:19PM 42.5064 -89.6681 82° East 465 535 19,200 -1,860 Descending Chicago Center
07:20PM 42.5203 -89.5022 83° East 452 520 17,400 -1,680 Descending Chicago Center
07:21PM 42.5356 -89.3456 82° East 427 491 15,700 -1,500 Descending Chicago Center
07:22PM 42.5492 -89.1936 83° East 411 473 14,400 -960 Descending Chicago Center
07:23PM 42.5394 -89.0514 95° East 335 386 13,800 -960 Descending Chicago Center
07:24PM 42.5078 -88.9425 111° Southeast 314 361 12,400 -1,320 Descending Chicago Center
07:25PM 42.4767 -88.8356 111° Southeast 310 357 11,100 -1,260 Descending Chicago Center
07:26PM 42.4450 -88.7328 113° Southeast 300 345 9,900 -1,020 Descending Chicago Center
07:27PM 42.4142 -88.6303 112° Southeast 296 341 9,100 -420 Descending Chicago Center
07:28PM 42.3817 -88.5189 112° Southeast 281 323 9,100 -60 Level Chicago Center
07:29PM 42.3342 -88.4603 138° Southeast 275 316 9,000 -60 Descending Chicago Center
07:30PM 42.2594 -88.4514 175° South 258 297 9,000  Level Chicago Center
07:32PM 42.2000 -88.4422 173° South 223 257 9,000  Level Chicago Center
07:33PM 42.1406 -88.4331 173° South 216 249 9,000 -240 Level Chicago Center
07:34PM 42.0864 -88.4478 191° South 223 257 8,600 -720 Descending Chicago Center
07:35PM 42.0531 -88.5072 233° Southwest 219 252 7,600 -840 Descending Chicago Center
07:36PM 41.9944 -88.4764 159° South 212 244 7,000 -300 Descending Chicago Center
07:37PM 41.9689 -88.4072 116° Southeast 206 237 7,000 -60 Level Chicago Center
07:38PM 41.9656 -88.3342 93° East 192 221 6,900 -720 Descending Chicago Center
07:39PM 41.9675 -88.2594 88° East 198 228 5,600 -1,200 Descending Chicago Center
07:40PM 41.9678 -88.1906 90° East 191 220 4,500 -1,020 Descending Chicago Center
07:41PM 41.9678 -88.1256 90° East 183 211 3,600 -1,020 Descending Chicago Center
07:41PM 41.9667 -88.0667 91° East 178 205 2,800 -1,020 Descending Chicago TRACON
07:42PM 41.9667 -88.0167 90° East 145 167 1,900 -900 Descending Chicago TRACON